Time;durP1;ratioP1;P1;durP2;ratioP2;P2;SDS_P1;SDS_P2;PMS_P1;PMS_P2;Temp;Humidity;BMP_temperature;BMP_pressure;BME280_temperature;BME280_humidity;BME280_pressure;Samples;Min_cycle;Max_cycle;Signal;HPM_P1;HPM_P2
2023/06/16 00:05:11;;;;;;;;;;;14.70;96.50;;;;;;5082617;28;19919;-67
2023/06/16 00:07:43;;;;;;;;;;;14.70;96.70;;;;;;5080035;28;19981;-67
2023/06/16 00:10:10;;;;;;;;;;;14.50;97.00;;;;;;5076705;28;20438;-68
2023/06/16 00:12:37;;;;;;;;;;;14.40;97.40;;;;;;5074655;28;19925;-67
2023/06/16 00:15:09;;;;;;;;;;;14.40;97.60;;;;;;5062778;28;20297;-67
2023/06/16 00:17:44;;;;;;;;;;;14.40;97.80;;;;;;5075554;28;19960;-67
2023/06/16 00:20:19;;;;;;;;;;;14.50;97.80;;;;;;5071783;28;19924;-67
2023/06/16 00:22:51;;;;;;;;;;;14.40;98.10;;;;;;5082177;28;20026;-67
2023/06/16 00:25:23;;;;;;;;;;;14.40;98.30;;;;;;5052203;28;19931;-69
2023/06/16 00:27:55;;;;;;;;;;;14.30;98.50;;;;;;5063353;28;19925;-68
2023/06/16 00:30:27;;;;;;;;;;;14.30;98.90;;;;;;5067927;28;19973;-69
2023/06/16 00:32:59;;;;;;;;;;;14.20;99.20;;;;;;5053269;28;19967;-67
2023/06/16 00:35:31;;;;;;;;;;;14.20;99.50;;;;;;5066421;28;19932;-67
2023/06/16 00:38:02;;;;;;;;;;;14.20;99.60;;;;;;5053891;28;19935;-68
2023/06/16 00:40:34;;;;;;;;;;;14.20;99.80;;;;;;5062289;28;19924;-67
2023/06/16 00:43:02;;;;;;;;;;;14.20;99.90;;;;;;5069674;28;19980;-68
2023/06/16 00:45:34;;;;;;;;;;;14.10;99.90;;;;;;5060166;28;19931;-68
2023/06/16 00:48:06;;;;;;;;;;;14.10;99.90;;;;;;5063037;28;20027;-68
2023/06/16 00:50:33;;;;;;;;;;;14.10;99.90;;;;;;5062682;28;19946;-67
2023/06/16 00:53:05;;;;;;;;;;;14.00;99.90;;;;;;5068473;28;20015;-67
2023/06/16 00:55:36;;;;;;;;;;;14.00;99.90;;;;;;5045601;28;20019;-67
2023/06/16 00:58:08;;;;;;;;;;;14.00;99.90;;;;;;5079835;28;20419;-67
2023/06/16 01:00:40;;;;;;;;;;;14.00;99.90;;;;;;5066233;28;20400;-67
2023/06/16 01:03:16;;;;;;;;;;;14.00;99.90;;;;;;5071407;28;19928;-68
2023/06/16 01:05:49;;;;;;;;;;;13.90;99.90;;;;;;5069556;28;20411;-67
2023/06/16 01:08:26;;;;;;;;;;;13.90;99.90;;;;;;5066002;28;20047;-67
2023/06/16 01:10:59;;;;;;;;;;;13.80;99.90;;;;;;5069871;28;19928;-68
2023/06/16 01:13:39;;;;;;;;;;;13.60;99.90;;;;;;5068068;28;19977;-67
2023/06/16 01:16:12;;;;;;;;;;;13.50;99.90;;;;;;5063682;28;19939;-67
2023/06/16 01:18:45;;;;;;;;;;;13.50;99.90;;;;;;5064365;28;19956;-68
2023/06/16 01:21:37;;;;;;;;;;;13.40;99.90;;;;;;5052178;28;19930;-67
2023/06/16 01:24:13;;;;;;;;;;;13.40;99.90;;;;;;5074139;28;20363;-68
2023/06/16 01:26:49;;;;;;;;;;;13.40;99.90;;;;;;5055653;28;19925;-68
2023/06/16 01:29:23;;;;;;;;;;;13.40;99.90;;;;;;5055409;28;19974;-67
2023/06/16 01:31:58;;;;;;;;;;;13.40;99.90;;;;;;5067769;28;20284;-67
2023/06/16 01:34:33;;;;;;;;;;;13.50;99.90;;;;;;5077515;28;19935;-67
2023/06/16 01:37:05;;;;;;;;;;;13.50;99.90;;;;;;5064003;28;19932;-67
2023/06/16 01:39:37;;;;;;;;;;;13.50;99.90;;;;;;5065603;28;19928;-67
2023/06/16 01:42:09;;;;;;;;;;;13.60;99.90;;;;;;5059435;28;19931;-67
2023/06/16 01:44:42;;;;;;;;;;;13.60;99.90;;;;;;5067303;28;19932;-67
2023/06/16 01:47:15;;;;;;;;;;;13.50;99.90;;;;;;5067246;28;19924;-67
2023/06/16 01:49:49;;;;;;;;;;;13.50;99.90;;;;;;5069244;28;19931;-67
2023/06/16 01:52:16;;;;;;;;;;;13.40;99.90;;;;;;5070908;28;19925;-67
2023/06/16 01:54:48;;;;;;;;;;;13.40;99.90;;;;;;5061051;28;19932;-67
2023/06/16 01:57:21;;;;;;;;;;;13.20;99.90;;;;;;5061544;28;19958;-67
2023/06/16 01:59:59;;;;;;;;;;;13.10;99.90;;;;;;5059897;28;20462;-67
2023/06/16 02:02:42;;;;;;;;;;;13.10;99.90;;;;;;5076891;28;20403;-67
2023/06/16 02:05:11;;;;;;;;;;;13.10;99.90;;;;;;5068535;28;19924;-67
2023/06/16 02:07:42;;;;;;;;;;;13.10;99.90;;;;;;5063950;28;20300;-67
2023/06/16 02:10:14;;;;;;;;;;;13.10;99.90;;;;;;5080450;28;20001;-67
2023/06/16 02:12:41;;;;;;;;;;;13.20;99.90;;;;;;5067776;28;20006;-67
2023/06/16 02:15:15;;;;;;;;;;;13.20;99.90;;;;;;5063188;28;20401;-68
2023/06/16 02:17:50;;;;;;;;;;;13.20;99.90;;;;;;5050243;28;20525;-67
2023/06/16 02:20:18;;;;;;;;;;;13.10;99.90;;;;;;5049209;28;20146;-67
2023/06/16 02:22:50;;;;;;;;;;;13.10;99.90;;;;;;5066646;28;19924;-68
2023/06/16 02:25:22;;;;;;;;;;;13.10;99.90;;;;;;5062375;28;20304;-67
2023/06/16 02:27:54;;;;;;;;;;;13.00;99.90;;;;;;5063689;28;19929;-67
2023/06/16 02:30:21;;;;;;;;;;;12.90;99.90;;;;;;5073318;28;20335;-67
2023/06/16 02:32:57;;;;;;;;;;;12.90;99.90;;;;;;5071613;28;19970;-68
2023/06/16 02:35:24;;;;;;;;;;;12.90;99.90;;;;;;5068835;28;19929;-67
2023/06/16 02:37:56;;;;;;;;;;;12.90;99.90;;;;;;5059867;28;19935;-68
2023/06/16 02:40:28;;;;;;;;;;;12.90;99.90;;;;;;5063473;28;19929;-67
2023/06/16 02:43:00;;;;;;;;;;;12.90;99.90;;;;;;5063759;28;20529;-68
2023/06/16 02:45:32;;;;;;;;;;;12.90;99.90;;;;;;5053435;28;20029;-67
2023/06/16 02:48:04;;;;;;;;;;;12.80;99.90;;;;;;5055148;28;19934;-67
2023/06/16 02:50:36;;;;;;;;;;;12.70;99.90;;;;;;5056344;28;19928;-67
2023/06/16 02:53:13;;;;;;;;;;;12.70;99.90;;;;;;5069235;28;19924;-67
2023/06/16 02:55:48;;;;;;;;;;;12.60;99.90;;;;;;5072649;28;19969;-67
2023/06/16 02:58:17;;;;;;;;;;;12.60;99.90;;;;;;5053404;28;19973;-67
2023/06/16 03:00:49;;;;;;;;;;;12.60;99.90;;;;;;5060129;28;19935;-67
2023/06/16 03:03:42;;;;;;;;;;;12.50;99.90;;;;;;5077972;28;20312;-66
2023/06/16 03:06:34;;;;;;;;;;;12.50;99.90;;;;;;5061169;28;19990;-67
2023/06/16 03:09:17;;;;;;;;;;;12.50;99.90;;;;;;5071100;28;19967;-67
2023/06/16 03:11:49;;;;;;;;;;;12.50;99.90;;;;;;5060257;28;20020;-68
2023/06/16 03:14:22;;;;;;;;;;;12.40;99.90;;;;;;5066733;28;20044;-67
2023/06/16 03:17:03;;;;;;;;;;;12.30;99.90;;;;;;5065672;28;20713;-67
2023/06/16 03:19:29;;;;;;;;;;;12.30;99.90;;;;;;5066152;28;20350;-67
2023/06/16 03:22:01;;;;;;;;;;;12.30;99.90;;;;;;5048560;28;20344;-68
2023/06/16 03:24:41;;;;;;;;;;;12.30;99.90;;;;;;5068388;28;19925;-67
2023/06/16 03:27:15;;;;;;;;;;;12.30;99.90;;;;;;5070851;28;19928;-67
2023/06/16 03:29:56;;;;;;;;;;;12.30;99.90;;;;;;5053405;28;19931;-67
2023/06/16 03:32:45;;;;;;;;;;;12.30;99.90;;;;;;5057739;28;19935;-68
2023/06/16 03:35:12;;;;;;;;;;;12.30;99.90;;;;;;5075626;28;19924;-67
2023/06/16 03:37:45;;;;;;;;;;;12.30;99.90;;;;;;5058894;28;19929;-67
2023/06/16 03:40:17;;;;;;;;;;;12.30;99.90;;;;;;5068587;28;19935;-67
2023/06/16 03:42:44;;;;;;;;;;;12.40;99.90;;;;;;5068523;28;19924;-67
2023/06/16 03:45:17;;;;;;;;;;;12.40;99.90;;;;;;5063240;28;19933;-67
2023/06/16 03:47:48;;;;;;;;;;;12.40;99.90;;;;;;5063480;28;19967;-67
2023/06/16 03:50:21;;;;;;;;;;;12.50;99.90;;;;;;5068827;28;20027;-67
2023/06/16 03:52:53;;;;;;;;;;;12.50;99.90;;;;;;5065961;28;19924;-67
2023/06/16 03:55:24;;;;;;;;;;;12.50;99.90;;;;;;5060440;28;20392;-67
2023/06/16 03:57:56;;;;;;;;;;;12.50;99.90;;;;;;5054756;28;19969;-67
2023/06/16 04:00:28;;;;;;;;;;;12.60;99.90;;;;;;5061204;28;20649;-67
2023/06/16 04:03:01;;;;;;;;;;;12.60;99.90;;;;;;5056146;28;19924;-67
2023/06/16 04:05:34;;;;;;;;;;;12.60;99.90;;;;;;5066252;28;19967;-67
2023/06/16 04:08:06;;;;;;;;;;;12.60;99.90;;;;;;5052636;28;20416;-66
2023/06/16 04:10:38;;;;;;;;;;;12.60;99.90;;;;;;5068868;28;19932;-67
2023/06/16 04:13:11;;;;;;;;;;;12.60;99.90;;;;;;5052990;28;19928;-67
2023/06/16 04:15:45;;;;;;;;;;;12.50;99.90;;;;;;5066306;28;19925;-67
2023/06/16 04:18:18;;;;;;;;;;;12.60;99.90;;;;;;5062731;28;20018;-67
2023/06/16 04:20:50;;;;;;;;;;;12.60;99.90;;;;;;5068055;28;19924;-67
2023/06/16 04:23:22;;;;;;;;;;;12.70;99.90;;;;;;5060628;28;19931;-67
2023/06/16 04:25:55;;;;;;;;;;;12.80;99.90;;;;;;5063071;28;19929;-67
2023/06/16 04:28:28;;;;;;;;;;;12.90;99.90;;;;;;5069992;28;19931;-66
2023/06/16 04:31:00;;;;;;;;;;;13.00;99.90;;;;;;5051513;28;20405;-67
2023/06/16 04:33:32;;;;;;;;;;;13.00;99.90;;;;;;5061777;28;19924;-67
2023/06/16 04:35:59;;;;;;;;;;;13.00;99.90;;;;;;5066924;28;19925;-67
2023/06/16 04:38:31;;;;;;;;;;;13.00;99.90;;;;;;5069668;28;20011;-67
2023/06/16 04:41:04;;;;;;;;;;;12.90;99.90;;;;;;5064983;28;20383;-67
2023/06/16 04:43:31;;;;;;;;;;;12.90;99.90;;;;;;5069195;28;20458;-67
2023/06/16 04:46:03;;;;;;;;;;;12.80;99.90;;;;;;5049542;28;19938;-66
2023/06/16 04:48:37;;;;;;;;;;;12.80;99.90;;;;;;5044789;28;20323;-66
2023/06/16 04:51:09;;;;;;;;;;;12.80;99.90;;;;;;5054269;28;20366;-66
2023/06/16 04:53:43;;;;;;;;;;;13.00;99.90;;;;;;5062257;28;19925;-67
2023/06/16 04:56:10;;;;;;;;;;;13.10;99.90;;;;;;5065774;28;19928;-67
2023/06/16 04:58:42;;;;;;;;;;;13.20;99.90;;;;;;5054314;28;19928;-67
2023/06/16 05:01:09;;;;;;;;;;;13.30;99.90;;;;;;5066077;28;19981;-66
2023/06/16 05:03:41;;;;;;;;;;;13.40;99.90;;;;;;5064540;28;19931;-67
2023/06/16 05:06:14;;;;;;;;;;;13.50;99.90;;;;;;5081272;28;20031;-67
2023/06/16 05:08:41;;;;;;;;;;;13.60;99.90;;;;;;5052074;28;20367;-67
2023/06/16 05:11:13;;;;;;;;;;;13.70;99.90;;;;;;5056193;28;19967;-67
2023/06/16 05:13:45;;;;;;;;;;;13.80;99.90;;;;;;5045200;28;20007;-67
2023/06/16 05:16:12;;;;;;;;;;;13.90;99.90;;;;;;5067188;28;19928;-67
2023/06/16 05:18:44;;;;;;;;;;;14.00;99.90;;;;;;5077424;28;19933;-67
2023/06/16 05:21:12;;;;;;;;;;;14.10;99.90;;;;;;5044330;28;20392;-67
2023/06/16 05:23:39;;;;;;;;;;;14.20;99.90;;;;;;5084083;28;19972;-67
2023/06/16 05:26:11;;;;;;;;;;;14.30;99.90;;;;;;5064689;28;19932;-67
2023/06/16 05:28:43;;;;;;;;;;;14.40;99.90;;;;;;5079770;28;20443;-67
2023/06/16 05:31:10;;;;;;;;;;;14.40;99.90;;;;;;5065924;28;19927;-67
2023/06/16 05:33:42;;;;;;;;;;;14.50;99.90;;;;;;5065098;28;19925;-67
2023/06/16 05:36:11;;;;;;;;;;;14.40;99.90;;;;;;5053327;28;19934;-66
2023/06/16 05:38:44;;;;;;;;;;;14.40;99.90;;;;;;5062042;28;19932;-67
2023/06/16 05:41:17;;;;;;;;;;;14.40;99.90;;;;;;5066041;28;19924;-67
2023/06/16 05:43:51;;;;;;;;;;;14.40;99.90;;;;;;5068575;28;19924;-67
2023/06/16 05:46:23;;;;;;;;;;;14.50;99.90;;;;;;5064616;28;19948;-67
2023/06/16 05:48:57;;;;;;;;;;;14.60;99.90;;;;;;5065063;28;19924;-66
2023/06/16 05:51:29;;;;;;;;;;;14.70;99.90;;;;;;5086315;28;19977;-67
2023/06/16 05:54:01;;;;;;;;;;;14.80;99.90;;;;;;5067333;28;20449;-67
2023/06/16 05:56:34;;;;;;;;;;;14.90;99.90;;;;;;5066307;28;19928;-67
2023/06/16 05:59:06;;;;;;;;;;;14.90;99.90;;;;;;5061944;28;19924;-67
2023/06/16 06:01:38;;;;;;;;;;;15.00;99.90;;;;;;5066563;28;19932;-66
2023/06/16 06:04:05;;;;;;;;;;;15.00;99.90;;;;;;5070089;28;20043;-67
2023/06/16 06:06:38;;;;;;;;;;;15.10;99.90;;;;;;5054577;28;19923;-66
2023/06/16 06:09:05;;;;;;;;;;;15.10;99.90;;;;;;5066821;28;19928;-67
2023/06/16 06:11:32;;;;;;;;;;;15.20;99.90;;;;;;5071413;28;19960;-67
2023/06/16 06:14:03;;;;;;;;;;;15.20;99.90;;;;;;5087353;28;19928;-67
2023/06/16 06:16:35;;;;;;;;;;;15.30;99.90;;;;;;5070042;28;19935;-67
2023/06/16 06:19:07;;;;;;;;;;;15.40;99.90;;;;;;5057166;28;19924;-67
2023/06/16 06:21:42;;;;;;;;;;;15.60;99.90;;;;;;5071151;28;19946;-67
2023/06/16 06:24:14;;;;;;;;;;;15.70;99.90;;;;;;5064573;28;20383;-67
2023/06/16 06:26:46;;;;;;;;;;;15.80;99.90;;;;;;5060081;28;20461;-67
2023/06/16 06:29:15;;;;;;;;;;;16.00;99.90;;;;;;5087818;28;19925;-66
2023/06/16 06:31:47;;;;;;;;;;;16.20;99.90;;;;;;5051937;28;19931;-67
2023/06/16 06:34:19;;;;;;;;;;;16.40;99.90;;;;;;5088112;28;19935;-67
2023/06/16 06:36:47;;;;;;;;;;;16.60;99.90;;;;;;5073558;28;19924;-66
2023/06/16 06:39:19;;;;;;;;;;;16.80;99.90;;;;;;5055215;28;20332;-66
2023/06/16 06:41:52;;;;;;;;;;;16.90;99.90;;;;;;5068659;28;19935;-67
2023/06/16 06:44:29;;;;;;;;;;;17.10;99.90;;;;;;5071724;28;19924;-67
2023/06/16 06:46:58;;;;;;;;;;;17.30;99.90;;;;;;5067874;28;20523;-67
2023/06/16 06:49:30;;;;;;;;;;;17.40;99.90;;;;;;5069841;28;20480;-66
2023/06/16 06:52:02;;;;;;;;;;;17.40;99.90;;;;;;5073050;28;19931;-66
2023/06/16 06:54:33;;;;;;;;;;;17.40;99.90;;;;;;5084170;28;19960;-66
2023/06/16 06:57:00;;;;;;;;;;;17.40;99.90;;;;;;5067742;28;19925;-66
2023/06/16 06:59:33;;;;;;;;;;;17.40;99.90;;;;;;5067943;28;19928;-66
2023/06/16 07:02:05;;;;;;;;;;;17.50;99.90;;;;;;5070041;28;19939;-67
2023/06/16 07:04:38;;;;;;;;;;;17.50;99.90;;;;;;5088095;28;19932;-66
2023/06/16 07:07:10;;;;;;;;;;;17.60;99.90;;;;;;5071478;28;19924;-67
2023/06/16 07:09:41;;;;;;;;;;;17.60;99.90;;;;;;5066695;28;20416;-67
2023/06/16 07:12:08;;;;;;;;;;;17.70;99.90;;;;;;5069888;28;19936;-66
2023/06/16 07:14:41;;;;;;;;;;;17.70;99.90;;;;;;5060880;28;19963;-67
2023/06/16 07:17:13;;;;;;;;;;;17.70;99.90;;;;;;5068272;28;19929;-67
2023/06/16 07:19:44;;;;;;;;;;;17.80;99.90;;;;;;5086905;28;19938;-67
2023/06/16 07:22:16;;;;;;;;;;;17.90;99.90;;;;;;5085995;28;20451;-66
2023/06/16 07:24:43;;;;;;;;;;;18.00;99.90;;;;;;5067386;28;20369;-67
2023/06/16 07:27:10;;;;;;;;;;;18.10;99.90;;;;;;5088128;28;20035;-67
2023/06/16 07:29:42;;;;;;;;;;;18.30;99.90;;;;;;5086213;28;19935;-67
2023/06/16 07:32:14;;;;;;;;;;;18.50;99.90;;;;;;5085436;28;19948;-67
2023/06/16 07:34:46;;;;;;;;;;;18.60;99.90;;;;;;5084788;28;20463;-67
2023/06/16 07:37:13;;;;;;;;;;;18.80;99.90;;;;;;5067931;28;19929;-67
2023/06/16 07:39:45;;;;;;;;;;;19.00;99.90;;;;;;5086751;28;19930;-67
2023/06/16 07:42:12;;;;;;;;;;;19.20;99.90;;;;;;5067786;28;20403;-67
2023/06/16 07:44:44;;;;;;;;;;;19.30;99.90;;;;;;5087228;28;19928;-67
2023/06/16 07:47:16;;;;;;;;;;;19.50;99.90;;;;;;5083090;28;19935;-67
2023/06/16 07:49:48;;;;;;;;;;;19.60;99.90;;;;;;5072095;28;19932;-68
2023/06/16 07:52:19;;;;;;;;;;;19.70;99.90;;;;;;5073750;28;20023;-67
2023/06/16 07:54:51;;;;;;;;;;;19.80;99.90;;;;;;5087627;28;19924;-67
2023/06/16 07:57:23;;;;;;;;;;;19.90;99.90;;;;;;5089360;28;19930;-67
2023/06/16 07:59:55;;;;;;;;;;;20.00;99.90;;;;;;5080832;28;20391;-67
2023/06/16 08:02:27;;;;;;;;;;;20.10;99.90;;;;;;5074799;28;19928;-67
2023/06/16 08:04:58;;;;;;;;;;;20.20;99.90;;;;;;5073184;28;19935;-67
2023/06/16 08:07:30;;;;;;;;;;;20.30;99.90;;;;;;5069798;28;19952;-67
2023/06/16 08:09:57;;;;;;;;;;;20.40;99.60;;;;;;5084841;28;19935;-67
2023/06/16 08:12:28;;;;;;;;;;;20.40;98.50;;;;;;5071729;28;19952;-67
2023/06/16 08:14:55;;;;;;;;;;;20.50;99.00;;;;;;5082089;28;19938;-67
2023/06/16 08:17:27;;;;;;;;;;;20.60;99.30;;;;;;5069820;28;19939;-67
2023/06/16 08:19:59;;;;;;;;;;;20.70;97.40;;;;;;5085793;28;19928;-67
2023/06/16 08:22:31;;;;;;;;;;;20.80;98.40;;;;;;5087271;28;19931;-67
2023/06/16 08:25:05;;;;;;;;;;;20.80;98.20;;;;;;5072568;28;19931;-67
2023/06/16 08:27:36;;;;;;;;;;;21.00;96.20;;;;;;5068509;28;19951;-67
2023/06/16 08:30:09;;;;;;;;;;;21.00;94.70;;;;;;5065762;28;20315;-66
2023/06/16 08:32:41;;;;;;;;;;;21.10;94.30;;;;;;5068219;28;19929;-66
2023/06/16 08:35:13;;;;;;;;;;;21.20;92.60;;;;;;5079877;28;19933;-66
2023/06/16 08:37:45;;;;;;;;;;;21.20;93.10;;;;;;5069380;28;19928;-67
2023/06/16 08:40:16;;;;;;;;;;;21.30;92.60;;;;;;5069859;28;19936;-66
2023/06/16 08:42:48;;;;;;;;;;;21.40;89.30;;;;;;5069802;28;19928;-66
2023/06/16 08:45:20;;;;;;;;;;;21.50;89.10;;;;;;5070051;28;19930;-67
2023/06/16 08:47:52;;;;;;;;;;;21.60;88.10;;;;;;5088080;28;19924;-67
2023/06/16 08:50:24;;;;;;;;;;;21.60;87.80;;;;;;5070926;28;20025;-68
2023/06/16 08:52:58;;;;;;;;;;;21.60;84.70;;;;;;5066407;28;20287;-67
2023/06/16 08:55:26;;;;;;;;;;;21.70;83.60;;;;;;5074168;28;19932;-67
2023/06/16 08:57:59;;;;;;;;;;;21.80;80.60;;;;;;5082066;28;19928;-66
2023/06/16 09:00:32;;;;;;;;;;;21.90;80.70;;;;;;5083492;28;20382;-66
2023/06/16 09:03:05;;;;;;;;;;;21.90;82.10;;;;;;5081463;28;19928;-66
2023/06/16 09:05:32;;;;;;;;;;;22.00;80.40;;;;;;5082921;28;19924;-66
2023/06/16 09:08:01;;;;;;;;;;;22.10;78.10;;;;;;5085027;28;20012;-66
2023/06/16 09:10:34;;;;;;;;;;;22.20;79.70;;;;;;5086937;28;19955;-66
2023/06/16 09:13:06;;;;;;;;;;;22.20;77.40;;;;;;5085596;28;19925;-66
2023/06/16 09:15:33;;;;;;;;;;;22.20;77.10;;;;;;5062271;28;20374;-66
2023/06/16 09:18:08;;;;;;;;;;;22.40;78.20;;;;;;5063460;28;20015;-66
2023/06/16 09:20:37;;;;;;;;;;;22.60;77.30;;;;;;5055670;28;19930;-66
2023/06/16 09:23:10;;;;;;;;;;;22.70;73.60;;;;;;5079489;28;19956;-66
2023/06/16 09:25:42;;;;;;;;;;;22.50;75.20;;;;;;5054449;28;19936;-66
2023/06/16 09:28:15;;;;;;;;;;;22.40;74.80;;;;;;5083241;28;20027;-66
2023/06/16 09:30:46;;;;;;;;;;;22.20;73.90;;;;;;5068357;28;19925;-65
2023/06/16 09:33:26;;;;;;;;;;;22.20;71.80;;;;;;5064353;28;19924;-65
2023/06/16 09:35:58;;;;;;;;;;;22.60;72.40;;;;;;5079933;28;19924;-66
2023/06/16 09:38:36;;;;;;;;;;;22.80;74.00;;;;;;5076894;28;19935;-65
2023/06/16 09:41:09;;;;;;;;;;;22.70;72.20;;;;;;5076802;28;20281;-66
2023/06/16 09:43:39;;;;;;;;;;;22.60;72.20;;;;;;5077287;28;20019;-65
2023/06/16 09:46:12;;;;;;;;;;;22.40;71.20;;;;;;5071344;28;20308;-65
2023/06/16 09:48:47;;;;;;;;;;;22.20;70.70;;;;;;5074423;28;19963;-65
2023/06/16 09:51:20;;;;;;;;;;;22.10;71.70;;;;;;5075038;28;19956;-65
2023/06/16 09:53:47;;;;;;;;;;;21.80;88.60;;;;;;5068605;28;19928;-65
2023/06/16 09:56:20;;;;;;;;;;;21.30;91.80;;;;;;5070502;28;19924;-66
2023/06/16 09:58:52;;;;;;;;;;;21.00;92.60;;;;;;5081347;28;19930;-65
2023/06/16 10:01:24;;;;;;;;;;;20.80;91.10;;;;;;5067958;28;19991;-66
2023/06/16 10:03:55;;;;;;;;;;;20.60;91.20;;;;;;5067061;28;19928;-66
2023/06/16 10:06:28;;;;;;;;;;;20.60;94.30;;;;;;5074068;28;20461;-66
2023/06/16 10:08:56;;;;;;;;;;;20.60;96.90;;;;;;5077892;28;19928;-66
2023/06/16 10:11:22;;;;;;;;;;;20.50;99.90;;;;;;5068136;28;19978;-66
2023/06/16 10:13:56;;;;;;;;;;;20.50;99.90;;;;;;5075953;28;19932;-66
2023/06/16 10:16:29;;;;;;;;;;;20.60;99.90;;;;;;5083464;28;20406;-66
2023/06/16 10:19:02;;;;;;;;;;;21.00;99.90;;;;;;5079347;28;19925;-66
2023/06/16 10:21:30;;;;;;;;;;;21.40;99.90;;;;;;5082609;28;19952;-66
2023/06/16 10:24:02;;;;;;;;;;;21.70;94.60;;;;;;5064293;28;19928;-66
2023/06/16 10:26:29;;;;;;;;;;;21.90;93.00;;;;;;5080440;28;20387;-65
2023/06/16 10:29:01;;;;;;;;;;;22.20;91.70;;;;;;5076229;28;20355;-66
2023/06/16 10:31:33;;;;;;;;;;;22.40;90.60;;;;;;5082422;28;19924;-65
2023/06/16 10:34:00;;;;;;;;;;;22.60;91.00;;;;;;5076035;28;19944;-66
2023/06/16 10:36:33;;;;;;;;;;;22.80;85.80;;;;;;5067814;28;19931;-66
2023/06/16 10:39:16;;;;;;;;;;;22.90;82.90;;;;;;5058110;28;19990;-65
2023/06/16 10:41:53;;;;;;;;;;;23.10;75.20;;;;;;5063177;28;19931;-65
2023/06/16 10:44:29;;;;;;;;;;;23.30;74.60;;;;;;5054950;28;19963;-65
2023/06/16 10:47:05;;;;;;;;;;;23.50;72.60;;;;;;5069049;28;19939;-66
2023/06/16 10:49:54;;;;;;;;;;;23.50;72.30;;;;;;5064895;28;19927;-66
2023/06/16 10:52:29;;;;;;;;;;;23.40;72.70;;;;;;5079877;28;19928;-66
2023/06/16 10:55:17;;;;;;;;;;;23.30;73.50;;;;;;5069211;28;19935;-65
2023/06/16 10:58:19;;;;;;;;;;;23.50;74.30;;;;;;5059411;28;20404;-65
2023/06/16 11:00:54;;;;;;;;;;;23.60;71.40;;;;;;5076922;28;19924;-66
2023/06/16 11:03:21;;;;;;;;;;;24.00;70.20;;;;;;5072721;28;19924;-65
2023/06/16 11:05:57;;;;;;;;;;;24.00;68.50;;;;;;5086737;28;19928;-65
2023/06/16 11:08:30;;;;;;;;;;;23.90;67.90;;;;;;5086806;28;19936;-65
2023/06/16 11:11:00;;;;;;;;;;;23.90;69.50;;;;;;5084744;28;20018;-65
2023/06/16 11:13:34;;;;;;;;;;;24.10;63.60;;;;;;5082436;28;19943;-65
2023/06/16 11:16:06;;;;;;;;;;;24.10;64.70;;;;;;5084676;28;19952;-65
2023/06/16 11:18:38;;;;;;;;;;;24.00;66.00;;;;;;5079178;28;20320;-65
2023/06/16 11:21:10;;;;;;;;;;;23.60;67.30;;;;;;5089578;28;19935;-66
2023/06/16 11:23:37;;;;;;;;;;;23.20;67.30;;;;;;5077116;28;20335;-65
2023/06/16 11:26:10;;;;;;;;;;;23.00;67.50;;;;;;5078129;28;19928;-65
2023/06/16 11:28:42;;;;;;;;;;;23.20;68.50;;;;;;5065718;28;19943;-65
2023/06/16 11:31:14;;;;;;;;;;;23.50;69.10;;;;;;5082823;28;19924;-65
2023/06/16 11:33:55;;;;;;;;;;;23.90;62.50;;;;;;5084537;28;19932;-66
2023/06/16 11:36:26;;;;;;;;;;;24.20;63.00;;;;;;5068876;28;19928;-64
2023/06/16 11:39:00;;;;;;;;;;;24.50;58.20;;;;;;5069539;28;19931;-65
2023/06/16 11:41:32;;;;;;;;;;;24.50;58.20;;;;;;5064722;28;19956;-64
2023/06/16 11:44:04;;;;;;;;;;;24.30;60.20;;;;;;5087118;28;20381;-64
2023/06/16 11:46:36;;;;;;;;;;;24.20;58.80;;;;;;5085581;28;19956;-64
2023/06/16 11:49:02;;;;;;;;;;;24.20;59.80;;;;;;5084087;28;20396;-64
2023/06/16 11:51:34;;;;;;;;;;;24.00;60.10;;;;;;5089293;28;19924;-63
2023/06/16 11:54:08;;;;;;;;;;;23.80;59.00;;;;;;5083454;28;19929;-64
2023/06/16 11:56:40;;;;;;;;;;;23.70;59.50;;;;;;5085817;28;19930;-64
2023/06/16 11:59:13;;;;;;;;;;;23.70;58.20;;;;;;5084212;28;20281;-64
2023/06/16 12:01:45;;;;;;;;;;;23.70;59.40;;;;;;5088339;28;19935;-62
2023/06/16 12:04:17;;;;;;;;;;;23.50;59.30;;;;;;5096547;28;19928;-62
2023/06/16 12:06:49;;;;;;;;;;;23.60;59.90;;;;;;5086642;28;19974;-62
2023/06/16 12:09:21;;;;;;;;;;;23.60;60.70;;;;;;5088112;28;19930;-61
2023/06/16 12:11:52;;;;;;;;;;;23.80;60.70;;;;;;5087351;28;19928;-62
2023/06/16 12:14:24;;;;;;;;;;;24.00;58.90;;;;;;5085774;28;20306;-62
2023/06/16 12:16:56;;;;;;;;;;;24.30;58.70;;;;;;5082689;28;19971;-62
2023/06/16 12:19:27;;;;;;;;;;;24.60;58.90;;;;;;5090659;28;20414;-61
2023/06/16 12:22:00;;;;;;;;;;;24.70;57.40;;;;;;5103579;27;19931;-62
2023/06/16 12:24:32;;;;;;;;;;;24.80;57.80;;;;;;5101739;28;19935;-62
2023/06/16 12:27:05;;;;;;;;;;;24.80;54.50;;;;;;5086791;28;20023;-61
2023/06/16 12:29:37;;;;;;;;;;;24.80;53.90;;;;;;5093042;28;19928;-62
2023/06/16 12:32:09;;;;;;;;;;;25.00;56.00;;;;;;5081697;28;19963;-62
2023/06/16 12:34:43;;;;;;;;;;;25.00;54.70;;;;;;5101150;28;19924;-62
2023/06/16 12:37:15;;;;;;;;;;;24.90;56.00;;;;;;5079508;28;19977;-62
2023/06/16 12:40:00;;;;;;;;;;;24.60;55.90;;;;;;5079840;28;19935;-62
2023/06/16 12:42:32;;;;;;;;;;;24.40;56.40;;;;;;5082871;28;19977;-62
2023/06/16 12:45:04;;;;;;;;;;;24.10;57.90;;;;;;5084882;28;19967;-62
2023/06/16 12:47:36;;;;;;;;;;;23.80;58.90;;;;;;5087223;28;19928;-61
2023/06/16 12:50:04;;;;;;;;;;;23.70;60.30;;;;;;5089256;28;20381;-62
2023/06/16 12:52:36;;;;;;;;;;;23.90;59.00;;;;;;5084534;28;19924;-61
2023/06/16 12:55:07;;;;;;;;;;;24.30;57.00;;;;;;5083975;28;20307;-61
2023/06/16 12:57:40;;;;;;;;;;;24.70;56.40;;;;;;5086168;28;20392;-62
2023/06/16 13:00:13;;;;;;;;;;;24.70;56.80;;;;;;5084752;28;19924;-62
2023/06/16 13:02:40;;;;;;;;;;;24.60;56.70;;;;;;5084300;28;19978;-61
2023/06/16 13:05:07;;;;;;;;;;;24.30;57.50;;;;;;5087530;28;19928;-61
2023/06/16 13:07:39;;;;;;;;;;;24.10;58.70;;;;;;5089971;28;19928;-62
2023/06/16 13:10:10;;;;;;;;;;;24.20;59.10;;;;;;5087073;28;19930;-61
2023/06/16 13:12:42;;;;;;;;;;;24.10;57.80;;;;;;5086839;28;19932;-62
2023/06/16 13:15:14;;;;;;;;;;;24.00;58.60;;;;;;5086843;28;20032;-62
2023/06/16 13:17:46;;;;;;;;;;;24.00;58.20;;;;;;5088653;28;20026;-62
2023/06/16 13:20:17;;;;;;;;;;;24.30;57.70;;;;;;5087043;28;20408;-62
2023/06/16 13:22:49;;;;;;;;;;;24.70;57.20;;;;;;5086568;28;19984;-62
2023/06/16 13:25:21;;;;;;;;;;;24.90;56.10;;;;;;5085109;28;19931;-62
2023/06/16 13:27:52;;;;;;;;;;;25.20;54.50;;;;;;5081658;28;19931;-62
2023/06/16 13:30:24;;;;;;;;;;;25.50;54.20;;;;;;5086967;28;20307;-61
2023/06/16 13:32:56;;;;;;;;;;;25.20;55.20;;;;;;5086019;28;20013;-62
2023/06/16 13:35:23;;;;;;;;;;;25.20;55.90;;;;;;5087813;28;19928;-62
2023/06/16 13:37:55;;;;;;;;;;;25.50;56.40;;;;;;5088076;28;19960;-61
2023/06/16 13:40:27;;;;;;;;;;;25.80;55.40;;;;;;5084508;28;19968;-62
2023/06/16 13:43:02;;;;;;;;;;;26.40;56.00;;;;;;5084004;28;19930;-62
2023/06/16 13:45:28;;;;;;;;;;;26.60;55.40;;;;;;5082964;28;19924;-62
2023/06/16 13:48:00;;;;;;;;;;;26.60;55.60;;;;;;5084655;28;20412;-61
2023/06/16 13:50:32;;;;;;;;;;;26.50;53.00;;;;;;5082928;28;19932;-61
2023/06/16 13:53:03;;;;;;;;;;;26.50;52.30;;;;;;5096315;28;20410;-62
2023/06/16 13:55:35;;;;;;;;;;;26.30;54.50;;;;;;5087514;28;20290;-61
2023/06/16 13:58:07;;;;;;;;;;;26.30;55.70;;;;;;5085069;28;19928;-62
2023/06/16 14:00:39;;;;;;;;;;;26.20;55.50;;;;;;5087211;28;20022;-62
2023/06/16 14:03:10;;;;;;;;;;;26.00;56.70;;;;;;5085929;28;20417;-62
2023/06/16 14:05:43;;;;;;;;;;;25.90;56.60;;;;;;5083105;28;19924;-62
2023/06/16 14:08:14;;;;;;;;;;;25.80;55.70;;;;;;5082406;28;19924;-62
2023/06/16 14:10:47;;;;;;;;;;;25.80;56.10;;;;;;5085202;28;19928;-62
2023/06/16 14:13:19;;;;;;;;;;;25.70;55.40;;;;;;5096109;28;20010;-62
2023/06/16 14:15:48;;;;;;;;;;;25.60;55.70;;;;;;5089374;28;19981;-62
2023/06/16 14:18:20;;;;;;;;;;;25.40;56.70;;;;;;5087691;28;19931;-62
2023/06/16 14:20:51;;;;;;;;;;;25.30;56.60;;;;;;5078752;28;20421;-61
2023/06/16 14:23:23;;;;;;;;;;;25.20;56.50;;;;;;5081794;28;19943;-62
2023/06/16 14:25:55;;;;;;;;;;;25.10;56.70;;;;;;5086825;28;20347;-62
2023/06/16 14:28:26;;;;;;;;;;;25.10;57.60;;;;;;5093471;28;19993;-62
2023/06/16 14:30:58;;;;;;;;;;;25.50;57.00;;;;;;5088991;28;19924;-62
2023/06/16 14:33:30;;;;;;;;;;;25.60;56.60;;;;;;5084180;28;19929;-62
2023/06/16 14:36:01;;;;;;;;;;;25.80;56.20;;;;;;5087559;28;19930;-62
2023/06/16 14:38:33;;;;;;;;;;;25.80;55.00;;;;;;5084497;28;19935;-62
2023/06/16 14:41:05;;;;;;;;;;;25.60;55.10;;;;;;5089466;28;20034;-61
2023/06/16 14:43:37;;;;;;;;;;;25.40;55.60;;;;;;5095014;28;19948;-61
2023/06/16 14:46:08;;;;;;;;;;;25.20;55.50;;;;;;5086423;28;20011;-62
2023/06/16 14:48:40;;;;;;;;;;;25.00;55.40;;;;;;5082502;28;20388;-62